createdAt,value
2017-11-25T00:01:10.063Z,100701.95
2017-11-25T00:03:44.824Z,100710.42
2017-11-25T00:06:19.646Z,100715.86
2017-11-25T00:08:54.766Z,100710.97
2017-11-25T00:11:29.710Z,100703.84
2017-11-25T00:14:04.363Z,100700.63
2017-11-25T00:16:39.660Z,100694.34
2017-11-25T00:19:14.868Z,100685.78
2017-11-25T00:21:49.738Z,100682.55
2017-11-25T00:24:24.590Z,100680.66
2017-11-25T00:26:59.447Z,100668.66
2017-11-25T00:29:34.385Z,100670.87
2017-11-25T00:32:09.102Z,100670.05
2017-11-25T00:34:44.255Z,100671.82
2017-11-25T00:37:19.382Z,100671.21
2017-11-25T00:39:54.291Z,100676.34
2017-11-25T00:42:29.325Z,100669.66
2017-11-25T00:45:04.251Z,100664.88
2017-11-25T00:47:38.797Z,100662.30
2017-11-25T00:50:13.280Z,100652.95
2017-11-25T00:52:47.955Z,100653.41
2017-11-25T00:55:22.782Z,100645.06
2017-11-25T00:57:57.711Z,100640.86
2017-11-25T01:00:32.664Z,100644.31
2017-11-25T01:03:07.292Z,100648.48
2017-11-25T01:05:42.319Z,100649.63
2017-11-25T01:08:17.099Z,100643.99
2017-11-25T01:10:52.281Z,100643.51
2017-11-25T01:13:27.303Z,100640.38
2017-11-25T01:16:02.171Z,100640.18
2017-11-25T01:18:36.944Z,100644.31
2017-11-25T01:21:11.859Z,100648.09
2017-11-25T01:23:46.696Z,100641.48
2017-11-25T01:26:21.699Z,100646.91
2017-11-25T01:28:56.747Z,100658.94
2017-11-25T01:31:31.651Z,100667.53
2017-11-25T01:34:06.575Z,100665.52
2017-11-25T01:36:41.066Z,100655.23
2017-11-25T01:39:16.370Z,100666.03
2017-11-25T01:41:50.986Z,100663.36
2017-11-25T01:44:25.786Z,100664.54
2017-11-25T01:47:00.510Z,100667.21
2017-11-25T01:49:35.471Z,100662.97
2017-11-25T01:52:10.273Z,100664.13
2017-11-25T01:54:45.414Z,100658.99
2017-11-25T01:57:19.844Z,100653.02
2017-11-25T01:59:54.710Z,100640.28
2017-11-25T02:02:29.682Z,100641.63
2017-11-25T02:05:04.479Z,100634.19
2017-11-25T02:07:39.531Z,100638.92
2017-11-25T02:10:14.091Z,100626.95
2017-11-25T02:12:48.590Z,100633.02
2017-11-25T02:15:23.358Z,100638.55
2017-11-25T02:17:58.549Z,100649.64
2017-11-25T02:20:33.000Z,100644.69
2017-11-25T02:23:07.660Z,100634.00
2017-11-25T02:25:42.482Z,100624.98
2017-11-25T02:28:17.583Z,100623.37
2017-11-25T02:30:51.839Z,100625.72
2017-11-25T02:33:27.166Z,100622.31
2017-11-25T02:36:01.663Z,100619.99
2017-11-25T02:38:36.798Z,100619.11
2017-11-25T02:41:11.911Z,100615.23
2017-11-25T02:43:46.248Z,100605.19
2017-11-25T02:46:20.899Z,100601.80
2017-11-25T02:48:55.552Z,100583.37
2017-11-25T02:51:30.162Z,100586.71
2017-11-25T02:54:04.812Z,100587.43
2017-11-25T02:56:39.587Z,100577.17
2017-11-25T02:59:14.380Z,100566.48
2017-11-25T03:01:49.671Z,100556.53
2017-11-25T03:04:24.199Z,100550.49
2017-11-25T03:06:59.458Z,100548.15
2017-11-25T03:09:34.518Z,100542.55
2017-11-25T03:12:08.983Z,100534.63
2017-11-25T03:14:44.033Z,100532.09
2017-11-25T03:17:18.915Z,100526.62
2017-11-25T03:19:53.544Z,100525.08
2017-11-25T03:22:28.287Z,100530.97
2017-11-25T03:25:03.115Z,100526.53
2017-11-25T03:27:38.073Z,100529.66
2017-11-25T03:30:12.876Z,100531.09
2017-11-25T03:32:47.740Z,100539.63
2017-11-25T03:35:22.226Z,100544.84
2017-11-25T03:37:57.146Z,100531.64
2017-11-25T03:40:31.666Z,100524.86
2017-11-25T03:43:06.503Z,100523.34
2017-11-25T03:45:41.332Z,100517.33
2017-11-25T03:48:16.243Z,100503.41
2017-11-25T03:50:51.067Z,100503.19
2017-11-25T03:53:26.411Z,100495.79
2017-11-25T03:56:01.013Z,100488.91
2017-11-25T03:58:35.795Z,100500.42
2017-11-25T04:01:10.476Z,100490.18
2017-11-25T04:03:45.426Z,100491.30
2017-11-25T04:06:20.362Z,100485.91
2017-11-25T04:08:55.075Z,100495.41
2017-11-25T04:11:30.535Z,100490.20
2017-11-25T04:14:05.491Z,100490.74
2017-11-25T04:16:40.392Z,100480.91
2017-11-25T04:19:15.471Z,100481.75
2017-11-25T04:21:50.399Z,100461.17
2017-11-25T04:24:25.426Z,100457.88
2017-11-25T04:26:59.827Z,100456.16
2017-11-25T04:29:35.078Z,100453.33
2017-11-25T04:32:09.939Z,100456.09
2017-11-25T04:34:44.647Z,100467.83
2017-11-25T04:37:20.028Z,100469.98
2017-11-25T04:39:55.315Z,100445.81
2017-11-25T04:42:30.052Z,100428.52
2017-11-25T04:45:04.990Z,100429.80
2017-11-25T04:47:39.748Z,100450.59
2017-11-25T04:50:14.811Z,100448.83
2017-11-25T04:52:49.808Z,100443.92
2017-11-25T04:55:24.383Z,100434.59
2017-11-25T04:57:58.923Z,100443.59
2017-11-25T05:00:33.767Z,100448.88
2017-11-25T05:03:08.272Z,100446.50
2017-11-25T05:05:43.013Z,100442.51
2017-11-25T05:08:17.822Z,100441.28
2017-11-25T05:10:52.823Z,100436.59
2017-11-25T05:13:28.047Z,100435.92
2017-11-25T05:16:02.913Z,100440.88
2017-11-25T05:18:38.142Z,100437.37
2017-11-25T05:21:12.299Z,100435.08
2017-11-25T05:23:47.238Z,100434.17
2017-11-25T05:26:21.846Z,100445.14
2017-11-25T05:28:56.838Z,100431.34
2017-11-25T05:31:31.779Z,100438.46
2017-11-25T05:34:06.891Z,100432.16
2017-11-25T05:36:42.323Z,100431.77
2017-11-25T05:39:17.057Z,100420.81
2017-11-25T05:41:51.811Z,100412.94
2017-11-25T05:44:26.699Z,100400.59
2017-11-25T05:47:01.861Z,100393.02
2017-11-25T05:49:36.295Z,100393.72
2017-11-25T05:52:11.133Z,100411.20
2017-11-25T05:54:46.191Z,100421.16
2017-11-25T05:57:20.972Z,100415.20
2017-11-25T05:59:55.726Z,100419.97
2017-11-25T06:02:30.534Z,100418.93
2017-11-25T06:05:05.290Z,100415.14
2017-11-25T06:07:40.167Z,100417.59
2017-11-25T06:10:15.169Z,100425.89
2017-11-25T06:12:50.311Z,100425.23
2017-11-25T06:15:24.934Z,100434.17
2017-11-25T06:17:59.855Z,100428.39
2017-11-25T06:20:34.855Z,100433.63
2017-11-25T06:23:09.663Z,100426.82
2017-11-25T06:25:44.475Z,100439.03
2017-11-25T06:28:19.379Z,100442.33
2017-11-25T06:30:54.395Z,100451.58
2017-11-25T06:33:29.149Z,100442.16
2017-11-25T06:36:04.052Z,100456.35
2017-11-25T06:38:38.998Z,100454.96
2017-11-25T06:41:13.910Z,100457.83
2017-11-25T06:43:48.825Z,100458.89
2017-11-25T06:46:23.927Z,100455.51
2017-11-25T06:48:59.013Z,100451.97
2017-11-25T06:51:33.875Z,100449.02
2017-11-25T06:54:08.927Z,100452.47
2017-11-25T06:56:43.803Z,100443.33
2017-11-25T06:59:18.465Z,100444.05
2017-11-25T07:01:53.415Z,100438.08
2017-11-25T07:04:28.231Z,100437.73
2017-11-25T07:07:03.166Z,100435.26
2017-11-25T07:09:38.219Z,100429.12
2017-11-25T07:12:13.274Z,100425.14
2017-11-25T07:14:47.982Z,100432.34
2017-11-25T07:17:22.803Z,100430.67
2017-11-25T07:19:57.348Z,100422.00
2017-11-25T07:22:32.259Z,100436.63
2017-11-25T07:25:06.778Z,100439.69
2017-11-25T07:27:41.582Z,100441.23
2017-11-25T07:30:17.352Z,100441.31
2017-11-25T07:32:52.421Z,100444.37
2017-11-25T07:35:27.197Z,100448.83
2017-11-25T07:38:02.051Z,100436.22
2017-11-25T07:40:36.778Z,100429.53
2017-11-25T07:43:12.006Z,100432.28
2017-11-25T07:45:46.866Z,100432.56
2017-11-25T07:48:21.991Z,100444.59
2017-11-25T07:50:56.933Z,100448.49
2017-11-25T07:53:32.046Z,100448.73
2017-11-25T07:56:06.967Z,100457.28
2017-11-25T07:58:41.909Z,100463.47
2017-11-25T08:01:16.955Z,100466.59
2017-11-25T08:03:51.558Z,100479.13
2017-11-25T08:06:26.103Z,100490.05
2017-11-25T08:09:01.252Z,100495.85
2017-11-25T08:11:35.783Z,100498.08
2017-11-25T08:14:10.507Z,100511.41
2017-11-25T08:16:45.323Z,100512.36
2017-11-25T08:19:20.266Z,100515.44
2017-11-25T08:21:54.762Z,100519.71
2017-11-25T08:24:29.483Z,100516.55
2017-11-25T08:27:04.531Z,100516.75
2017-11-25T08:29:39.590Z,100512.97
2017-11-25T08:32:14.447Z,100505.45
2017-11-25T08:34:49.374Z,100509.24
2017-11-25T08:37:24.098Z,100506.62
2017-11-25T08:39:58.956Z,100517.88
2017-11-25T08:42:33.936Z,100515.44
2017-11-25T08:45:09.076Z,100511.58
2017-11-25T08:47:43.847Z,100514.36
2017-11-25T08:50:18.643Z,100523.28
2017-11-25T08:52:53.398Z,100532.09
2017-11-25T08:55:28.654Z,100536.31
2017-11-25T08:58:03.563Z,100536.88
2017-11-25T09:00:37.943Z,100529.38
2017-11-25T09:03:13.054Z,100534.41
2017-11-25T09:05:48.052Z,100538.83
2017-11-25T09:08:23.003Z,100543.94
2017-11-25T09:10:58.274Z,100548.18
2017-11-25T09:13:33.181Z,100538.88
2017-11-25T09:16:08.211Z,100548.28
2017-11-25T09:18:43.115Z,100555.08
2017-11-25T09:21:17.743Z,100558.36
2017-11-25T09:23:52.666Z,100560.31
2017-11-25T09:26:27.301Z,100560.27
2017-11-25T09:29:02.175Z,100565.61
2017-11-25T09:31:37.099Z,100565.55
2017-11-25T09:34:11.703Z,100565.94
2017-11-25T09:36:46.883Z,100563.88
2017-11-25T09:39:21.466Z,100572.67
2017-11-25T09:41:56.118Z,100574.22
2017-11-25T09:44:30.511Z,100577.84
2017-11-25T09:47:05.366Z,100572.33
2017-11-25T09:49:40.115Z,100566.52
2017-11-25T09:52:14.743Z,100570.42
2017-11-25T09:54:49.614Z,100573.92
2017-11-25T09:57:24.293Z,100570.80
2017-11-25T09:59:59.723Z,100568.72
2017-11-25T10:02:34.722Z,100566.23
2017-11-25T10:05:09.967Z,100564.38
2017-11-25T10:07:44.895Z,100565.21
2017-11-25T10:10:19.618Z,100557.25
2017-11-25T10:12:54.684Z,100559.34
2017-11-25T10:15:29.802Z,100550.64
2017-11-25T10:18:04.862Z,100556.75
2017-11-25T10:20:39.566Z,100551.58
2017-11-25T10:23:14.903Z,100559.23
2017-11-25T10:25:49.862Z,100538.80
2017-11-25T10:28:24.763Z,100559.20
2017-11-25T10:30:59.755Z,100557.78
2017-11-25T10:33:34.750Z,100554.52
2017-11-25T10:36:09.842Z,100560.53
2017-11-25T10:38:44.718Z,100552.58
2017-11-25T10:41:19.742Z,100551.79
2017-11-25T10:43:54.350Z,100548.28
2017-11-25T10:46:28.659Z,100550.16
2017-11-25T10:49:03.619Z,100543.35
2017-11-25T10:51:38.446Z,100539.73
2017-11-25T10:54:13.406Z,100540.33
2017-11-25T10:56:47.987Z,100549.33
2017-11-25T10:59:23.175Z,100549.92
2017-11-25T11:09:22.281Z,100544.97
2017-11-25T11:11:57.203Z,100544.09
2017-11-25T11:14:32.130Z,100550.66
2017-11-25T11:17:06.582Z,100551.16
2017-11-25T11:19:41.787Z,100548.44
2017-11-25T11:22:16.710Z,100554.11
2017-11-25T11:24:51.287Z,100553.94
2017-11-25T11:27:26.490Z,100556.07
2017-11-25T11:30:01.276Z,100553.13
2017-11-25T11:32:36.452Z,100554.22
2017-11-25T11:35:11.554Z,100554.98
2017-11-25T11:37:46.893Z,100548.13
2017-11-25T11:40:21.636Z,100548.81
2017-11-25T11:42:56.943Z,100548.94
2017-11-25T11:45:32.023Z,100549.00
2017-11-25T11:48:06.926Z,100542.81
2017-11-25T11:50:41.721Z,100546.63
2017-11-25T11:53:16.827Z,100554.70
2017-11-25T11:55:51.821Z,100559.35
2017-11-25T11:58:26.839Z,100556.22
2017-11-25T12:01:01.318Z,100561.00
2017-11-25T12:03:36.326Z,100561.83
2017-11-25T12:06:11.458Z,100561.27
2017-11-25T12:08:46.103Z,100558.77
2017-11-25T12:11:21.142Z,100559.19
2017-11-25T12:13:56.262Z,100561.07
2017-11-25T12:16:31.150Z,100569.92
2017-11-25T12:19:06.257Z,100570.04
2017-11-25T12:21:41.537Z,100564.32
2017-11-25T12:24:16.667Z,100567.78
2017-11-25T12:26:51.961Z,100577.62
2017-11-25T12:29:27.107Z,100580.83
2017-11-25T12:32:02.033Z,100586.86
2017-11-25T12:34:37.296Z,100583.64
2017-11-25T12:37:12.230Z,100599.17
2017-11-25T12:39:47.113Z,100588.06
2017-11-25T12:42:22.110Z,100589.52
2017-11-25T12:44:56.917Z,100587.10
2017-11-25T12:47:31.814Z,100589.98
2017-11-25T12:50:06.222Z,100593.95
2017-11-25T12:52:41.433Z,100578.88
2017-11-25T12:55:16.226Z,100574.45
2017-11-25T12:57:51.206Z,100580.34
2017-11-25T13:00:26.134Z,100583.13
2017-11-25T13:03:01.099Z,100588.70
2017-11-25T13:05:36.126Z,100588.06
2017-11-25T13:08:11.082Z,100589.28
2017-11-25T13:10:45.891Z,100585.16
2017-11-25T13:13:20.891Z,100583.95
2017-11-25T13:15:56.096Z,100587.43
2017-11-25T13:18:31.105Z,100595.56
2017-11-25T13:21:06.328Z,100594.87
2017-11-25T13:23:41.454Z,100599.26
2017-11-25T13:26:16.630Z,100597.58
2017-11-25T13:28:52.797Z,100603.28
2017-11-25T13:31:27.388Z,100604.27
2017-11-25T13:34:02.615Z,100612.83
2017-11-25T13:36:37.711Z,100615.52
2017-11-25T13:39:12.576Z,100613.68
2017-11-25T13:41:47.697Z,100614.56
2017-11-25T13:44:22.690Z,100615.47
2017-11-25T13:46:57.626Z,100616.61
2017-11-25T13:49:32.786Z,100614.62
2017-11-25T13:52:07.734Z,100618.06
2017-11-25T13:54:42.742Z,100620.77
2017-11-25T13:57:17.443Z,100620.25
2017-11-25T13:59:52.794Z,100610.48
2017-11-25T14:02:27.698Z,100609.20
2017-11-25T14:05:02.386Z,100613.98
2017-11-25T14:07:36.932Z,100611.02
2017-11-25T14:10:11.544Z,100620.55
2017-11-25T14:12:46.235Z,100615.77
2017-11-25T14:15:20.118Z,100616.13
2017-11-25T14:17:53.970Z,100608.51
2017-11-25T14:20:28.838Z,100619.98
2017-11-25T14:23:04.081Z,100623.81
2017-11-25T14:25:38.954Z,100634.27
2017-11-25T14:28:13.186Z,100632.80
2017-11-25T14:30:48.512Z,100642.24
2017-11-25T14:33:23.394Z,100637.70
2017-11-25T14:35:58.402Z,100637.05
2017-11-25T14:38:33.326Z,100638.07
2017-11-25T14:41:08.565Z,100641.08
2017-11-25T14:43:43.471Z,100637.42
2017-11-25T14:46:18.250Z,100638.56
2017-11-25T14:48:52.637Z,100637.02
2017-11-25T14:51:27.644Z,100635.84
2017-11-25T14:54:02.608Z,100639.23
2017-11-25T14:56:37.618Z,100644.11
2017-11-25T14:59:12.628Z,100651.05
2017-11-25T15:01:47.750Z,100646.48
2017-11-25T15:04:22.555Z,100650.83
2017-11-25T15:06:57.775Z,100657.97
2017-11-25T15:09:32.762Z,100652.24
2017-11-25T15:12:07.864Z,100661.41
2017-11-25T15:14:42.308Z,100654.83
2017-11-25T15:17:17.343Z,100654.45
2017-11-25T15:19:52.624Z,100665.00
2017-11-25T15:22:27.822Z,100665.84
2017-11-25T15:25:02.730Z,100671.66
2017-11-25T15:27:37.895Z,100682.92
2017-11-25T15:30:12.745Z,100684.67
2017-11-25T15:32:46.975Z,100684.28
2017-11-25T15:35:21.701Z,100698.66
2017-11-25T15:37:56.487Z,100702.55
2017-11-25T15:40:30.539Z,100700.39
2017-11-25T15:43:05.529Z,100704.19
2017-11-25T15:45:40.295Z,100711.53
2017-11-25T15:48:15.413Z,100709.41
2017-11-25T15:50:49.891Z,100712.66
2017-11-25T15:53:25.002Z,100712.55
2017-11-25T15:55:59.759Z,100727.30
2017-11-25T15:58:34.262Z,100723.56
2017-11-25T16:01:09.287Z,100724.13
2017-11-25T16:03:44.162Z,100724.39
2017-11-25T16:06:18.859Z,100734.71
2017-11-25T16:08:53.975Z,100738.87
2017-11-25T16:11:28.867Z,100730.12
2017-11-25T16:14:03.978Z,100739.70
2017-11-25T16:16:39.112Z,100741.75
2017-11-25T16:19:14.034Z,100746.20
2017-11-25T16:21:48.731Z,100741.92
2017-11-25T16:24:24.084Z,100740.11
2017-11-25T16:26:59.114Z,100747.69
2017-11-25T16:29:34.092Z,100746.16
2017-11-25T16:32:09.247Z,100755.13
2017-11-25T16:34:43.923Z,100762.07
2017-11-25T16:37:18.750Z,100769.80
2017-11-25T16:39:53.926Z,100777.35
2017-11-25T16:42:28.774Z,100778.34
2017-11-25T16:45:03.730Z,100777.35
2017-11-25T16:47:38.847Z,100777.81
2017-11-25T16:50:13.999Z,100778.17
2017-11-25T16:52:49.027Z,100783.86
2017-11-25T16:55:24.037Z,100784.61
2017-11-25T16:57:58.964Z,100788.73
2017-11-25T17:00:34.071Z,100789.19
2017-11-25T17:03:09.167Z,100788.46
2017-11-25T17:05:44.371Z,100787.48
2017-11-25T17:08:19.523Z,100787.53
2017-11-25T17:10:54.821Z,100792.14
2017-11-25T17:13:29.979Z,100793.13
2017-11-25T17:16:05.305Z,100788.64
2017-11-25T17:18:40.162Z,100798.48
2017-11-25T17:21:15.206Z,100807.73
2017-11-25T17:23:50.337Z,100810.59
2017-11-25T17:26:25.143Z,100814.70
2017-11-25T17:29:00.054Z,100815.64
2017-11-25T17:31:36.534Z,100818.88
2017-11-25T17:34:11.181Z,100816.59
2017-11-25T17:36:46.280Z,100820.01
2017-11-25T17:39:21.206Z,100818.67
2017-11-25T17:41:56.459Z,100823.86
2017-11-25T17:44:31.533Z,100833.75
2017-11-25T17:47:06.644Z,100833.80
2017-11-25T17:49:41.494Z,100833.45
2017-11-25T17:52:16.518Z,100835.17
2017-11-25T17:54:51.550Z,100842.64
2017-11-25T17:57:26.459Z,100841.76
2017-11-25T18:00:01.767Z,100854.01
2017-11-25T18:02:36.608Z,100851.84
2017-11-25T18:05:11.427Z,100854.46
2017-11-25T18:07:46.546Z,100854.60
2017-11-25T18:10:21.473Z,100864.09
2017-11-25T18:12:56.661Z,100864.58
2017-11-25T18:15:31.898Z,100863.58
2017-11-25T18:18:07.009Z,100867.63
2017-11-25T18:20:42.107Z,100862.30
2017-11-25T18:23:17.106Z,100862.19
2017-11-25T18:25:52.264Z,100864.11
2017-11-25T18:28:27.086Z,100862.02
2017-11-25T18:31:02.098Z,100865.94
2017-11-25T18:33:37.132Z,100877.83
2017-11-25T18:36:12.134Z,100879.70
2017-11-25T18:38:47.255Z,100877.08
2017-11-25T18:41:22.303Z,100880.81
2017-11-25T18:43:57.340Z,100882.61
2017-11-25T18:46:32.462Z,100883.58
2017-11-25T18:49:07.471Z,100885.63
2017-11-25T18:51:42.396Z,100832.89
2017-11-25T18:54:17.406Z,100882.02
2017-11-25T18:56:52.412Z,100889.61
2017-11-25T18:59:27.567Z,100888.29
2017-11-25T19:02:02.705Z,100897.52
2017-11-25T19:04:37.827Z,100890.84
2017-11-25T19:07:12.759Z,100900.66
2017-11-25T19:09:48.086Z,100900.30
2017-11-25T19:12:22.986Z,100903.42
2017-11-25T19:14:57.916Z,100906.22
2017-11-25T19:17:32.995Z,100909.39
2017-11-25T19:20:08.007Z,100913.83
2017-11-25T19:22:42.955Z,100915.56
2017-11-25T19:25:17.784Z,100916.81
2017-11-25T19:27:52.682Z,100918.14
2017-11-25T19:30:27.888Z,100922.19
2017-11-25T19:33:03.451Z,100927.17
2017-11-25T19:35:38.395Z,100931.58
2017-11-25T19:38:13.291Z,100932.90
2017-11-25T19:40:48.206Z,100936.06
2017-11-25T19:43:23.230Z,100942.87
2017-11-25T19:45:58.292Z,100943.98
2017-11-25T19:48:33.430Z,100949.53
2017-11-25T19:51:08.568Z,100951.94
2017-11-25T19:53:43.778Z,100949.27
2017-11-25T19:56:18.594Z,100949.63
2017-11-25T19:58:53.498Z,100953.58
2017-11-25T20:01:28.818Z,100961.12
2017-11-25T20:04:03.560Z,100962.47
2017-11-25T20:06:38.846Z,100968.81
2017-11-25T20:09:13.903Z,100962.33
2017-11-25T20:11:48.599Z,100963.34
2017-11-25T20:14:23.806Z,100966.05
2017-11-25T20:16:58.810Z,100960.38
2017-11-25T20:19:33.634Z,100960.82
2017-11-25T20:22:08.567Z,100966.55
2017-11-25T20:24:43.767Z,100968.59
2017-11-25T20:27:18.971Z,100972.19
2017-11-25T20:29:53.799Z,100973.39
2017-11-25T20:32:29.067Z,100972.01
2017-11-25T20:35:04.155Z,100979.08
2017-11-25T20:37:38.898Z,100974.63
2017-11-25T20:40:13.841Z,100970.28
2017-11-25T20:42:48.234Z,100983.42
2017-11-25T20:45:23.417Z,100977.42
2017-11-25T20:47:58.240Z,100985.77
2017-11-25T20:50:33.046Z,100982.75
2017-11-25T20:53:08.174Z,100986.39
2017-11-25T20:55:43.186Z,100989.10
2017-11-25T20:58:18.262Z,100992.70
2017-11-25T21:00:53.226Z,100991.31
2017-11-25T21:03:28.066Z,100995.61
2017-11-25T21:06:03.166Z,100987.03
2017-11-25T21:08:38.295Z,100991.34
2017-11-25T21:11:13.599Z,100996.36
2017-11-25T21:13:48.931Z,100996.72
2017-11-25T21:16:23.574Z,100997.61
2017-11-25T21:18:58.308Z,101001.33
2017-11-25T21:21:32.801Z,100994.27
2017-11-25T21:24:07.839Z,101004.44
2017-11-25T21:26:42.460Z,100996.06
2017-11-25T21:29:17.169Z,100995.98
2017-11-25T21:31:51.952Z,101002.72
2017-11-25T21:34:26.586Z,101000.48
2017-11-25T21:37:01.475Z,100998.58
2017-11-25T21:39:36.512Z,101008.18
2017-11-25T21:42:11.416Z,101010.36
2017-11-25T21:44:46.240Z,101015.72
2017-11-25T21:47:20.956Z,101013.45
2017-11-25T21:49:56.042Z,101016.53
2017-11-25T21:52:30.923Z,101012.14
2017-11-25T21:55:06.028Z,101013.47
2017-11-25T21:57:40.899Z,101011.05
2017-11-25T22:00:15.854Z,101027.52
2017-11-25T22:02:50.730Z,101019.48
2017-11-25T22:05:25.596Z,101014.16
2017-11-25T22:08:00.498Z,101021.26
2017-11-25T22:10:35.395Z,101018.95
2017-11-25T22:13:10.427Z,101019.36
2017-11-25T22:15:45.238Z,101025.09
2017-11-25T22:18:20.271Z,101030.33
2017-11-25T22:20:55.244Z,101028.68
2017-11-25T22:23:30.156Z,101027.97
2017-11-25T22:26:04.552Z,101033.49
2017-11-25T22:28:39.754Z,101020.67
2017-11-25T22:31:14.930Z,101030.06
2017-11-25T22:33:49.938Z,101035.31
2017-11-25T22:36:25.048Z,101031.77
2017-11-25T22:39:00.179Z,101032.28
2017-11-25T22:41:35.298Z,101026.30
2017-11-25T22:44:10.495Z,101027.61
2017-11-25T22:46:45.675Z,101032.63
2017-11-25T22:49:20.887Z,101032.86
2017-11-25T22:51:55.932Z,101046.37
2017-11-25T22:54:31.059Z,101032.26
2017-11-25T22:57:06.272Z,101043.25
2017-11-25T22:59:41.194Z,101051.41
2017-11-25T23:02:16.095Z,101049.03
2017-11-25T23:04:51.250Z,101045.64
2017-11-25T23:07:26.052Z,101043.27
2017-11-25T23:10:01.179Z,101048.42
2017-11-25T23:12:36.177Z,101049.80
2017-11-25T23:15:11.008Z,101039.07
2017-11-25T23:17:46.005Z,101046.01
2017-11-25T23:20:21.196Z,101053.55
2017-11-25T23:22:56.002Z,101045.12
2017-11-25T23:25:30.926Z,101042.94
2017-11-25T23:28:05.929Z,101047.02
2017-11-25T23:30:40.359Z,101043.91
2017-11-25T23:33:15.379Z,101041.77
2017-11-25T23:35:50.601Z,101042.61
2017-11-25T23:38:25.617Z,101050.23
2017-11-25T23:41:00.102Z,101045.69
2017-11-25T23:43:35.051Z,101041.16
2017-11-25T23:46:09.888Z,101041.94
2017-11-25T23:48:44.623Z,101047.45
2017-11-25T23:51:19.560Z,101056.33
2017-11-25T23:53:54.406Z,101048.09
2017-11-25T23:56:29.335Z,101048.38
2017-11-25T23:59:04.122Z,101055.47
